createdAt,value
2022-08-19T00:01:38.259Z,100.00
2022-08-19T00:04:08.825Z,100.00
2022-08-19T00:06:37.536Z,100.00
2022-08-19T00:09:07.367Z,100.00
2022-08-19T00:11:35.563Z,100.00
2022-08-19T00:14:03.615Z,100.00
2022-08-19T00:16:30.909Z,100.00
2022-08-19T00:18:59.851Z,100.00
2022-08-19T00:21:27.961Z,100.00
2022-08-19T00:23:59.067Z,100.00
2022-08-19T00:26:27.653Z,100.00
2022-08-19T00:28:55.603Z,100.00
2022-08-19T00:31:26.522Z,100.00
2022-08-19T00:33:55.616Z,100.00
2022-08-19T00:36:25.687Z,100.00
2022-08-19T00:38:54.584Z,100.00
2022-08-19T00:41:22.756Z,100.00
2022-08-19T00:44:13.512Z,100.00
2022-08-19T00:46:42.101Z,100.00
2022-08-19T00:49:31.111Z,100.00
2022-08-19T00:52:03.081Z,100.00
2022-08-19T00:54:32.401Z,100.00
2022-08-19T00:57:00.325Z,100.00
2022-08-19T01:00:00.516Z,100.00
2022-08-19T01:02:18.339Z,100.00
2022-08-19T01:04:47.169Z,100.00
2022-08-19T01:07:15.252Z,100.00
2022-08-19T01:09:47.079Z,100.00
2022-08-19T01:12:14.151Z,100.00
2022-08-19T01:14:41.255Z,100.00
2022-08-19T01:17:11.119Z,100.00
2022-08-19T01:19:43.626Z,100.00
2022-08-19T01:22:26.459Z,100.00
2022-08-19T01:24:56.509Z,100.00
2022-08-19T01:27:23.742Z,100.00
2022-08-19T01:29:52.369Z,100.00
2022-08-19T01:32:33.866Z,100.00
2022-08-19T01:35:02.861Z,100.00
2022-08-19T01:37:31.290Z,100.00
2022-08-19T01:39:59.127Z,100.00
2022-08-19T01:42:28.151Z,100.00
2022-08-19T01:44:57.858Z,100.00
2022-08-19T01:47:25.696Z,100.00
2022-08-19T01:49:52.360Z,100.00
2022-08-19T01:52:19.151Z,100.00
2022-08-19T01:54:45.958Z,100.00
2022-08-19T01:57:13.927Z,100.00
2022-08-19T01:59:42.314Z,100.00
2022-08-19T02:02:11.388Z,100.00
2022-08-19T02:04:41.139Z,100.00
2022-08-19T02:07:11.730Z,100.00
2022-08-19T02:09:39.712Z,100.00
2022-08-19T02:12:08.803Z,100.00
2022-08-19T02:14:37.321Z,100.00
2022-08-19T02:17:04.979Z,100.00
2022-08-19T02:19:33.551Z,100.00
2022-08-19T02:22:02.229Z,100.00
2022-08-19T02:24:32.174Z,100.00
2022-08-19T02:27:00.366Z,100.00
2022-08-19T02:29:28.628Z,100.00
2022-08-19T02:31:57.898Z,100.00
2022-08-19T02:34:26.000Z,100.00
2022-08-19T02:36:53.476Z,100.00
2022-08-19T02:39:21.756Z,100.00
2022-08-19T02:41:50.420Z,100.00
2022-08-19T02:44:29.362Z,100.00
2022-08-19T02:46:58.221Z,100.00
2022-08-19T02:49:24.912Z,100.00
2022-08-19T02:51:51.916Z,100.00
2022-08-19T02:54:18.599Z,100.00
2022-08-19T02:56:46.204Z,100.00
2022-08-19T02:59:13.276Z,100.00
2022-08-19T03:01:43.334Z,100.00
2022-08-19T03:04:16.466Z,100.00
2022-08-19T03:06:45.843Z,100.00
2022-08-19T03:09:13.269Z,100.00
2022-08-19T03:11:40.172Z,100.00
2022-08-19T03:14:08.540Z,100.00
2022-08-19T03:16:42.792Z,100.00
2022-08-19T03:19:09.864Z,100.00
2022-08-19T03:21:37.499Z,100.00
2022-08-19T03:24:07.406Z,100.00
2022-08-19T03:26:35.418Z,100.00
2022-08-19T03:29:05.516Z,100.00
2022-08-19T03:31:42.147Z,100.00
2022-08-19T03:34:20.898Z,100.00
2022-08-19T03:36:48.152Z,100.00
2022-08-19T03:39:15.212Z,100.00
2022-08-19T03:41:46.286Z,100.00
2022-08-19T03:44:21.543Z,100.00
2022-08-19T03:46:58.503Z,100.00
2022-08-19T03:49:29.809Z,100.00
2022-08-19T03:51:58.284Z,100.00
2022-08-19T03:54:26.140Z,100.00
2022-08-19T03:56:55.701Z,100.00
2022-08-19T03:59:26.832Z,100.00
2022-08-19T04:01:56.306Z,100.00
2022-08-19T04:04:24.971Z,100.00
2022-08-19T04:06:58.019Z,100.00
2022-08-19T04:09:26.731Z,100.00
2022-08-19T04:11:56.677Z,100.00
2022-08-19T04:14:26.189Z,100.00
2022-08-19T04:16:55.131Z,100.00
2022-08-19T04:19:23.907Z,100.00
2022-08-19T04:21:54.296Z,100.00
2022-08-19T04:24:23.140Z,100.00
2022-08-19T04:26:51.307Z,100.00
2022-08-19T04:29:22.809Z,100.00
2022-08-19T04:31:50.388Z,100.00
2022-08-19T04:34:22.986Z,100.00
2022-08-19T04:36:53.239Z,100.00
2022-08-19T04:39:48.495Z,100.00
2022-08-19T04:42:35.475Z,100.00
2022-08-19T04:45:05.519Z,100.00
2022-08-19T04:47:47.819Z,100.00
2022-08-19T04:50:27.068Z,100.00
2022-08-19T04:52:54.320Z,100.00
2022-08-19T04:55:21.359Z,100.00
2022-08-19T04:57:49.848Z,100.00
2022-08-19T05:00:18.520Z,100.00
2022-08-19T05:02:47.086Z,100.00
2022-08-19T05:05:15.828Z,100.00
2022-08-19T05:07:43.155Z,100.00
2022-08-19T05:10:10.503Z,100.00
2022-08-19T05:12:37.981Z,100.00
2022-08-19T05:15:06.751Z,100.00
2022-08-19T05:17:38.090Z,100.00
2022-08-19T05:20:26.919Z,100.00
2022-08-19T05:22:53.922Z,100.00
2022-08-19T05:25:22.485Z,100.00
2022-08-19T05:27:50.627Z,100.00
2022-08-19T05:30:17.645Z,100.00
2022-08-19T05:32:44.307Z,100.00
2022-08-19T05:35:12.468Z,100.00
2022-08-19T05:37:41.342Z,100.00
2022-08-19T05:40:10.299Z,100.00
2022-08-19T05:42:38.511Z,100.00
2022-08-19T05:45:07.416Z,100.00
2022-08-19T05:47:36.019Z,100.00
2022-08-19T05:50:09.065Z,100.00
2022-08-19T05:52:39.056Z,100.00
2022-08-19T05:55:11.942Z,100.00
2022-08-19T05:57:39.870Z,100.00
2022-08-19T06:00:12.519Z,100.00
2022-08-19T06:02:43.356Z,100.00
2022-08-19T06:05:11.060Z,100.00
2022-08-19T06:07:40.508Z,100.00
2022-08-19T06:10:11.673Z,100.00
2022-08-19T06:12:40.057Z,100.00
2022-08-19T06:15:11.300Z,100.00
2022-08-19T06:17:40.294Z,100.00
2022-08-19T06:20:14.439Z,100.00
2022-08-19T06:22:46.433Z,100.00
2022-08-19T06:25:15.210Z,100.00
2022-08-19T06:28:14.646Z,100.00
2022-08-19T06:30:30.595Z,100.00
2022-08-19T06:32:57.727Z,100.00
2022-08-19T06:35:24.899Z,100.00
2022-08-19T06:37:53.608Z,100.00
2022-08-19T06:40:20.435Z,100.00
2022-08-19T06:42:54.089Z,100.00
2022-08-19T06:45:24.567Z,100.00
2022-08-19T06:47:55.279Z,100.00
2022-08-19T06:50:25.754Z,100.00
2022-08-19T06:52:52.538Z,100.00
2022-08-19T06:55:20.043Z,100.00
2022-08-19T06:57:49.281Z,100.00
2022-08-19T07:00:16.875Z,100.00
2022-08-19T07:02:49.820Z,100.00
2022-08-19T07:05:23.705Z,100.00
2022-08-19T07:07:51.011Z,100.00
2022-08-19T07:10:18.150Z,100.00
2022-08-19T07:12:45.533Z,100.00
2022-08-19T07:15:12.927Z,100.00
2022-08-19T07:17:41.792Z,100.00
2022-08-19T07:20:11.269Z,100.00
2022-08-19T07:22:40.224Z,100.00
2022-08-19T07:25:08.765Z,100.00
2022-08-19T07:27:36.715Z,100.00
2022-08-19T07:30:06.038Z,100.00
2022-08-19T07:32:32.759Z,99.79
2022-08-19T07:35:01.668Z,100.00
2022-08-19T07:37:33.044Z,100.00
2022-08-19T07:40:02.353Z,99.96
2022-08-19T07:42:31.795Z,99.47
2022-08-19T07:44:59.701Z,98.71
2022-08-19T07:47:49.333Z,98.96
2022-08-19T07:50:16.480Z,98.70
2022-08-19T07:52:45.365Z,98.40
2022-08-19T07:55:41.183Z,97.31
2022-08-19T07:58:06.179Z,97.99
2022-08-19T08:00:33.765Z,99.89
2022-08-19T08:03:02.073Z,99.04
2022-08-19T08:05:48.928Z,98.22
2022-08-19T08:08:44.382Z,99.34
2022-08-19T08:11:20.089Z,99.20
2022-08-19T08:14:00.561Z,98.49
2022-08-19T08:16:46.745Z,99.24
2022-08-19T08:19:25.451Z,99.28
2022-08-19T08:21:56.879Z,98.16
2022-08-19T08:24:28.695Z,98.06
2022-08-19T08:27:01.156Z,96.80
2022-08-19T08:29:35.061Z,98.06
2022-08-19T08:32:04.540Z,97.84
2022-08-19T08:34:43.747Z,99.94
2022-08-19T08:37:10.514Z,100.00
2022-08-19T08:39:37.222Z,100.00
2022-08-19T08:42:16.875Z,100.00
2022-08-19T08:47:21.663Z,100.00
2022-08-19T08:49:52.830Z,100.00
2022-08-19T08:52:31.971Z,100.00
2022-08-19T08:55:02.291Z,100.00
2022-08-19T08:57:40.863Z,100.00
2022-08-19T09:00:15.390Z,100.00
2022-08-19T09:02:50.589Z,100.00
2022-08-19T09:05:26.024Z,100.00
2022-08-19T09:08:06.294Z,100.00
2022-08-19T09:10:45.045Z,100.00
2022-08-19T09:13:57.369Z,100.00
2022-08-19T09:16:28.283Z,100.00
2022-08-19T09:19:07.049Z,100.00
2022-08-19T09:21:39.475Z,100.00
2022-08-19T09:24:07.535Z,100.00
2022-08-19T09:26:47.601Z,100.00
2022-08-19T09:29:19.547Z,100.00
2022-08-19T09:31:50.932Z,100.00
2022-08-19T09:34:22.212Z,100.00
2022-08-19T09:36:55.449Z,100.00
2022-08-19T09:39:22.821Z,100.00
2022-08-19T09:41:50.966Z,100.00
2022-08-19T09:44:19.046Z,100.00
2022-08-19T09:46:49.958Z,100.00
2022-08-19T09:49:18.594Z,100.00
2022-08-19T09:51:51.152Z,100.00
2022-08-19T09:54:23.702Z,100.00
2022-08-19T09:56:53.609Z,100.00
2022-08-19T09:59:23.798Z,100.00
2022-08-19T10:01:52.707Z,100.00
2022-08-19T10:04:25.401Z,100.00
2022-08-19T10:06:56.387Z,100.00
2022-08-19T10:09:34.295Z,100.00
2022-08-19T10:12:03.843Z,100.00
2022-08-19T10:14:33.740Z,100.00
2022-08-19T10:17:04.726Z,100.00
2022-08-19T10:19:55.682Z,100.00
2022-08-19T10:22:26.393Z,100.00
2022-08-19T10:24:55.185Z,100.00
2022-08-19T10:27:22.668Z,100.00
2022-08-19T10:29:52.823Z,100.00
2022-08-19T10:32:33.681Z,100.00
2022-08-19T10:35:08.846Z,100.00
2022-08-19T10:37:37.957Z,100.00
2022-08-19T10:40:27.154Z,100.00
2022-08-19T10:42:57.103Z,100.00
2022-08-19T10:45:26.908Z,100.00
2022-08-19T10:47:56.804Z,100.00
2022-08-19T10:50:43.236Z,100.00
2022-08-19T10:53:10.210Z,100.00
2022-08-19T10:55:57.343Z,100.00
2022-08-19T10:58:25.897Z,100.00
2022-08-19T11:00:58.181Z,100.00
2022-08-19T11:03:31.564Z,100.00
2022-08-19T11:06:06.255Z,100.00
2022-08-19T11:08:35.861Z,100.00
2022-08-19T11:11:04.697Z,100.00
2022-08-19T11:13:36.229Z,100.00
2022-08-19T11:16:09.407Z,100.00
2022-08-19T11:18:38.407Z,100.00
2022-08-19T11:21:10.430Z,100.00
2022-08-19T11:23:37.161Z,100.00
2022-08-19T11:26:05.344Z,100.00
2022-08-19T11:28:33.223Z,100.00
2022-08-19T11:30:59.941Z,100.00
2022-08-19T11:33:27.361Z,100.00
2022-08-19T11:35:55.500Z,100.00
2022-08-19T11:38:23.827Z,100.00
2022-08-19T11:41:01.317Z,100.00
2022-08-19T11:43:31.579Z,100.00
2022-08-19T11:46:07.857Z,100.00
2022-08-19T11:48:36.538Z,100.00
2022-08-19T11:51:10.354Z,100.00
2022-08-19T11:53:38.686Z,100.00
2022-08-19T11:56:06.722Z,100.00
2022-08-19T11:58:35.082Z,100.00
2022-08-19T12:01:03.626Z,100.00
2022-08-19T12:03:34.263Z,100.00
2022-08-19T12:06:06.870Z,100.00
2022-08-19T12:08:34.132Z,100.00
2022-08-19T12:11:02.359Z,100.00
2022-08-19T12:13:31.459Z,100.00
2022-08-19T12:16:01.407Z,100.00
2022-08-19T12:18:29.226Z,100.00
2022-08-19T12:20:57.607Z,100.00
2022-08-19T12:23:26.937Z,100.00
2022-08-19T12:25:55.621Z,100.00
2022-08-19T12:28:24.971Z,100.00
2022-08-19T12:30:52.403Z,100.00
2022-08-19T12:33:24.467Z,100.00
2022-08-19T12:35:53.284Z,100.00
2022-08-19T12:38:25.598Z,100.00
2022-08-19T12:40:55.150Z,100.00
2022-08-19T12:43:24.242Z,100.00
2022-08-19T12:45:51.553Z,100.00
2022-08-19T12:48:33.770Z,100.00
2022-08-19T12:51:08.227Z,100.00
2022-08-19T12:53:35.330Z,100.00
2022-08-19T12:56:07.634Z,100.00
2022-08-19T12:58:48.920Z,100.00
2022-08-19T13:01:22.926Z,100.00
2022-08-19T13:03:55.050Z,97.09
2022-08-19T13:06:22.500Z,96.28
2022-08-19T13:08:50.723Z,98.89
2022-08-19T13:11:20.418Z,97.42
2022-08-19T13:13:49.241Z,100.00
2022-08-19T13:16:16.593Z,100.00
2022-08-19T13:18:45.586Z,100.00
2022-08-19T13:21:13.985Z,99.73
2022-08-19T13:23:41.849Z,99.84
2022-08-19T13:26:09.861Z,98.94
2022-08-19T13:28:55.101Z,100.00
2022-08-19T13:31:41.167Z,100.00
2022-08-19T13:34:09.840Z,100.00
2022-08-19T13:36:37.342Z,100.00
2022-08-19T13:39:08.551Z,100.00
2022-08-19T13:41:36.130Z,100.00
2022-08-19T13:44:04.125Z,100.00
2022-08-19T13:46:31.465Z,99.67
2022-08-19T13:48:59.133Z,99.59
2022-08-19T13:51:26.339Z,100.00
2022-08-19T13:53:52.948Z,98.66
2022-08-19T13:56:26.104Z,100.00
2022-08-19T13:58:54.375Z,100.00
2022-08-19T14:01:25.508Z,100.00
2022-08-19T14:03:56.894Z,100.00
2022-08-19T14:06:24.700Z,100.00
2022-08-19T14:08:56.469Z,96.91
2022-08-19T14:11:24.112Z,94.87
2022-08-19T14:13:52.417Z,96.43
2022-08-19T14:16:19.449Z,97.07
2022-08-19T14:18:47.279Z,96.33
2022-08-19T14:21:18.420Z,98.10
2022-08-19T14:23:47.284Z,98.80
2022-08-19T14:26:17.991Z,95.72
2022-08-19T14:28:45.821Z,95.82
2022-08-19T14:31:19.273Z,99.92
2022-08-19T14:33:48.472Z,99.10
2022-08-19T14:36:16.043Z,98.54
2022-08-19T14:38:49.826Z,100.00
2022-08-19T14:41:22.498Z,100.00
2022-08-19T14:43:52.763Z,100.00
2022-08-19T14:46:24.107Z,100.00
2022-08-19T14:48:53.605Z,100.00
2022-08-19T14:51:22.161Z,100.00
2022-08-19T14:53:49.801Z,100.00
2022-08-19T14:56:22.107Z,100.00
2022-08-19T14:58:52.478Z,100.00
2022-08-19T15:01:23.895Z,100.00
2022-08-19T15:03:53.903Z,100.00
2022-08-19T15:06:22.124Z,100.00
2022-08-19T15:08:49.002Z,100.00
2022-08-19T15:11:17.457Z,100.00
2022-08-19T15:13:45.624Z,100.00
2022-08-19T15:16:18.149Z,100.00
2022-08-19T15:18:47.663Z,100.00
2022-08-19T15:21:17.467Z,100.00
2022-08-19T15:23:55.794Z,100.00
2022-08-19T15:26:22.589Z,100.00
2022-08-19T15:28:49.757Z,100.00
2022-08-19T15:31:27.964Z,100.00
2022-08-19T15:34:00.653Z,100.00
2022-08-19T15:36:28.324Z,100.00
2022-08-19T15:39:00.044Z,100.00
2022-08-19T15:41:30.484Z,100.00
2022-08-19T15:44:04.849Z,100.00
2022-08-19T15:46:33.504Z,100.00
2022-08-19T15:49:00.652Z,100.00
2022-08-19T15:51:30.718Z,100.00
2022-08-19T15:53:58.643Z,100.00
2022-08-19T15:56:27.630Z,100.00
2022-08-19T15:59:14.599Z,100.00
2022-08-19T16:02:01.548Z,100.00
2022-08-19T16:04:49.465Z,100.00
2022-08-19T16:07:22.355Z,100.00
2022-08-19T16:09:50.632Z,100.00
2022-08-19T16:12:18.987Z,100.00
2022-08-19T16:14:49.557Z,100.00
2022-08-19T16:17:17.523Z,100.00
2022-08-19T16:19:50.840Z,100.00
2022-08-19T16:22:29.926Z,100.00
2022-08-19T16:24:57.849Z,100.00
2022-08-19T16:27:25.575Z,100.00
2022-08-19T16:29:55.694Z,100.00
2022-08-19T16:32:23.727Z,100.00
2022-08-19T16:34:52.016Z,100.00
2022-08-19T16:37:21.741Z,100.00
2022-08-19T16:39:49.884Z,100.00
2022-08-19T16:42:18.868Z,100.00
2022-08-19T16:44:46.912Z,100.00
2022-08-19T16:47:16.831Z,100.00
2022-08-19T16:49:53.267Z,100.00
2022-08-19T16:52:26.224Z,100.00
2022-08-19T16:54:54.733Z,100.00
2022-08-19T16:57:23.927Z,100.00
2022-08-19T16:59:52.374Z,100.00
2022-08-19T17:02:23.339Z,100.00
2022-08-19T17:04:58.487Z,100.00
2022-08-19T17:07:27.768Z,100.00
2022-08-19T17:09:56.746Z,100.00
2022-08-19T17:12:30.579Z,100.00
2022-08-19T17:15:01.112Z,100.00
2022-08-19T17:17:29.521Z,100.00
2022-08-19T17:19:57.713Z,100.00
2022-08-19T17:22:25.922Z,100.00
2022-08-19T17:24:52.733Z,100.00
2022-08-19T17:27:23.166Z,100.00
2022-08-19T17:29:49.929Z,100.00
2022-08-19T17:32:17.008Z,100.00
2022-08-19T17:34:54.178Z,100.00
2022-08-19T17:37:21.654Z,100.00
2022-08-19T17:39:48.351Z,100.00
2022-08-19T17:42:16.273Z,100.00
2022-08-19T17:44:50.719Z,100.00
2022-08-19T17:47:19.537Z,100.00
2022-08-19T17:49:46.350Z,100.00
2022-08-19T17:52:14.134Z,100.00
2022-08-19T17:54:41.385Z,100.00
2022-08-19T17:57:09.569Z,100.00
2022-08-19T17:59:38.060Z,100.00
2022-08-19T18:02:10.136Z,100.00
2022-08-19T18:04:38.890Z,100.00
2022-08-19T18:07:09.326Z,100.00
2022-08-19T18:09:42.504Z,100.00
2022-08-19T18:12:12.402Z,100.00
2022-08-19T18:14:41.690Z,100.00
2022-08-19T18:17:13.815Z,100.00
2022-08-19T18:19:43.393Z,100.00
2022-08-19T18:22:31.237Z,100.00
2022-08-19T18:25:01.893Z,100.00
2022-08-19T18:27:33.759Z,100.00
2022-08-19T18:30:06.141Z,100.00
2022-08-19T18:32:34.258Z,100.00
2022-08-19T18:35:12.059Z,100.00
2022-08-19T18:37:43.723Z,100.00
2022-08-19T18:40:37.012Z,100.00
2022-08-19T18:43:12.391Z,100.00
2022-08-19T18:46:03.094Z,100.00
2022-08-19T18:48:49.387Z,100.00
2022-08-19T18:51:18.291Z,100.00
2022-08-19T18:53:47.345Z,100.00
2022-08-19T18:56:17.096Z,100.00
2022-08-19T18:58:44.598Z,100.00
2022-08-19T19:01:22.664Z,100.00
2022-08-19T19:03:53.868Z,100.00
2022-08-19T19:06:28.860Z,100.00
2022-08-19T19:08:57.394Z,100.00
2022-08-19T19:11:31.343Z,100.00
2022-08-19T19:13:58.253Z,100.00
2022-08-19T19:16:25.998Z,100.00
2022-08-19T19:18:53.973Z,100.00
2022-08-19T19:21:23.120Z,100.00
2022-08-19T19:23:50.367Z,100.00
2022-08-19T19:26:17.628Z,100.00
2022-08-19T19:28:47.998Z,100.00
2022-08-19T19:31:26.452Z,100.00
2022-08-19T19:33:54.423Z,100.00
2022-08-19T19:36:22.823Z,100.00
2022-08-19T19:38:50.031Z,100.00
2022-08-19T19:41:24.502Z,100.00
2022-08-19T19:44:10.002Z,100.00
2022-08-19T19:46:45.194Z,100.00
2022-08-19T19:49:12.041Z,100.00
2022-08-19T19:51:39.424Z,100.00
2022-08-19T19:54:09.082Z,100.00
2022-08-19T19:56:35.967Z,100.00
2022-08-19T19:59:04.446Z,100.00
2022-08-19T20:01:37.615Z,100.00
2022-08-19T20:04:08.006Z,100.00
2022-08-19T20:06:36.772Z,100.00
2022-08-19T20:09:10.764Z,100.00
2022-08-19T20:11:53.697Z,100.00
2022-08-19T20:14:27.690Z,100.00
2022-08-19T20:16:55.998Z,100.00
2022-08-19T20:19:28.013Z,100.00
2022-08-19T20:21:57.285Z,100.00
2022-08-19T20:24:28.553Z,100.00
2022-08-19T20:26:57.924Z,100.00
2022-08-19T20:29:38.811Z,100.00
2022-08-19T20:32:10.009Z,100.00
2022-08-19T20:34:39.840Z,100.00
2022-08-19T20:37:09.435Z,100.00
2022-08-19T20:39:38.037Z,100.00
2022-08-19T20:42:05.846Z,100.00
2022-08-19T20:44:33.586Z,100.00
2022-08-19T20:47:03.823Z,100.00
2022-08-19T20:49:32.285Z,100.00
2022-08-19T20:52:00.391Z,100.00
2022-08-19T20:54:27.600Z,100.00
2022-08-19T20:56:54.634Z,100.00
2022-08-19T20:59:22.905Z,100.00
2022-08-19T21:01:51.906Z,100.00
2022-08-19T21:04:22.377Z,100.00
2022-08-19T21:06:51.032Z,100.00
2022-08-19T21:09:18.042Z,100.00
2022-08-19T21:11:45.535Z,100.00
2022-08-19T21:14:12.854Z,100.00
2022-08-19T21:16:39.565Z,100.00
2022-08-19T21:19:06.687Z,100.00
2022-08-19T21:21:34.980Z,100.00
2022-08-19T21:24:01.780Z,100.00
2022-08-19T21:26:28.450Z,100.00
2022-08-19T21:28:56.811Z,100.00
2022-08-19T21:31:24.569Z,100.00
2022-08-19T21:33:52.317Z,100.00
2022-08-19T21:36:19.440Z,100.00
2022-08-19T21:38:46.224Z,100.00
2022-08-19T21:41:13.356Z,100.00
2022-08-19T21:43:40.910Z,100.00
2022-08-19T21:46:09.566Z,100.00
2022-08-19T21:48:38.005Z,100.00
2022-08-19T21:51:07.705Z,100.00
2022-08-19T21:53:35.789Z,100.00
2022-08-19T21:56:06.383Z,100.00
2022-08-19T21:58:36.368Z,100.00
2022-08-19T22:01:06.158Z,100.00
2022-08-19T22:03:35.624Z,100.00
2022-08-19T22:06:05.535Z,100.00
2022-08-19T22:08:33.390Z,100.00
2022-08-19T22:11:03.922Z,100.00
2022-08-19T22:13:40.142Z,100.00
2022-08-19T22:16:10.762Z,100.00
2022-08-19T22:18:39.116Z,100.00
2022-08-19T22:21:14.222Z,100.00
2022-08-19T22:23:47.028Z,100.00
2022-08-19T22:26:17.763Z,100.00
2022-08-19T22:28:46.673Z,100.00
2022-08-19T22:31:16.059Z,100.00
2022-08-19T22:33:47.783Z,100.00
2022-08-19T22:36:15.335Z,100.00
2022-08-19T22:38:43.738Z,100.00
2022-08-19T22:41:11.741Z,100.00
2022-08-19T22:43:40.875Z,100.00
2022-08-19T22:46:17.454Z,100.00
2022-08-19T22:48:47.705Z,100.00
2022-08-19T22:51:37.176Z,100.00
2022-08-19T22:54:04.760Z,100.00
2022-08-19T22:56:32.139Z,100.00
2022-08-19T22:58:58.849Z,100.00
2022-08-19T23:01:30.433Z,100.00
2022-08-19T23:04:00.225Z,100.00
2022-08-19T23:06:34.160Z,100.00
2022-08-19T23:09:07.293Z,100.00
2022-08-19T23:11:42.005Z,100.00
2022-08-19T23:14:10.340Z,100.00
2022-08-19T23:16:37.230Z,100.00
2022-08-19T23:19:04.985Z,100.00
2022-08-19T23:21:36.043Z,100.00
2022-08-19T23:24:03.065Z,100.00
2022-08-19T23:26:35.589Z,100.00
2022-08-19T23:29:23.713Z,100.00
2022-08-19T23:31:52.080Z,100.00
2022-08-19T23:34:18.822Z,100.00
2022-08-19T23:36:46.270Z,100.00
2022-08-19T23:39:13.057Z,100.00
2022-08-19T23:41:40.895Z,100.00
2022-08-19T23:44:14.408Z,100.00
2022-08-19T23:46:55.378Z,100.00
2022-08-19T23:49:23.564Z,100.00
2022-08-19T23:51:50.335Z,100.00
2022-08-19T23:54:16.948Z,100.00
2022-08-19T23:56:45.059Z,100.00
2022-08-19T23:59:12.117Z,100.00
